sensor_id;sensor_type;location;lat;lon;timestamp;P1;durP1;ratioP1;P2;durP2;ratioP2
16177;SDS011;8195;51.220;9.746;2023-10-13T00:01:57;26.03;;;22.20;;
16177;SDS011;8195;51.220;9.746;2023-10-13T00:06:18;27.07;;;23.57;;
16177;SDS011;8195;51.220;9.746;2023-10-13T00:10:38;30.00;;;24.50;;
16177;SDS011;8195;51.220;9.746;2023-10-13T00:14:59;28.93;;;23.33;;
16177;SDS011;8195;51.220;9.746;2023-10-13T00:19:19;27.63;;;23.37;;
16177;SDS011;8195;51.220;9.746;2023-10-13T00:23:40;25.73;;;22.17;;
16177;SDS011;8195;51.220;9.746;2023-10-13T00:28:00;27.13;;;23.57;;
16177;SDS011;8195;51.220;9.746;2023-10-13T00:32:21;24.97;;;21.97;;
16177;SDS011;8195;51.220;9.746;2023-10-13T00:36:41;24.97;;;22.30;;
16177;SDS011;8195;51.220;9.746;2023-10-13T00:41:01;24.63;;;22.03;;
16177;SDS011;8195;51.220;9.746;2023-10-13T00:45:22;28.20;;;22.97;;
16177;SDS011;8195;51.220;9.746;2023-10-13T00:49:44;23.10;;;20.60;;
16177;SDS011;8195;51.220;9.746;2023-10-13T00:54:04;22.57;;;20.00;;
16177;SDS011;8195;51.220;9.746;2023-10-13T00:58:25;25.33;;;21.23;;
16177;SDS011;8195;51.220;9.746;2023-10-13T01:02:46;22.57;;;20.20;;
16177;SDS011;8195;51.220;9.746;2023-10-13T01:07:06;23.10;;;19.73;;
16177;SDS011;8195;51.220;9.746;2023-10-13T01:11:26;22.93;;;20.47;;
16177;SDS011;8195;51.220;9.746;2023-10-13T01:15:46;23.33;;;20.93;;
16177;SDS011;8195;51.220;9.746;2023-10-13T01:20:07;22.57;;;19.80;;
16177;SDS011;8195;51.220;9.746;2023-10-13T01:24:28;22.50;;;20.30;;
16177;SDS011;8195;51.220;9.746;2023-10-13T01:28:48;20.20;;;18.23;;
16177;SDS011;8195;51.220;9.746;2023-10-13T01:33:09;21.03;;;18.43;;
16177;SDS011;8195;51.220;9.746;2023-10-13T01:37:29;19.60;;;17.53;;
16177;SDS011;8195;51.220;9.746;2023-10-13T01:41:49;20.60;;;18.50;;
16177;SDS011;8195;51.220;9.746;2023-10-13T01:46:10;21.00;;;18.80;;
16177;SDS011;8195;51.220;9.746;2023-10-13T01:50:30;20.73;;;18.33;;
16177;SDS011;8195;51.220;9.746;2023-10-13T01:54:51;21.83;;;19.07;;
16177;SDS011;8195;51.220;9.746;2023-10-13T01:59:11;22.77;;;19.23;;
16177;SDS011;8195;51.220;9.746;2023-10-13T02:03:32;20.20;;;18.00;;
16177;SDS011;8195;51.220;9.746;2023-10-13T02:07:52;21.47;;;19.23;;
16177;SDS011;8195;51.220;9.746;2023-10-13T02:12:12;22.17;;;19.80;;
16177;SDS011;8195;51.220;9.746;2023-10-13T02:16:33;22.37;;;20.03;;
16177;SDS011;8195;51.220;9.746;2023-10-13T02:20:53;22.10;;;19.70;;
16177;SDS011;8195;51.220;9.746;2023-10-13T02:25:15;21.97;;;19.53;;
16177;SDS011;8195;51.220;9.746;2023-10-13T02:29:39;24.37;;;20.73;;
16177;SDS011;8195;51.220;9.746;2023-10-13T02:34:00;23.30;;;20.77;;
16177;SDS011;8195;51.220;9.746;2023-10-13T02:38:21;21.50;;;19.07;;
16177;SDS011;8195;51.220;9.746;2023-10-13T02:42:41;23.23;;;20.77;;
16177;SDS011;8195;51.220;9.746;2023-10-13T02:47:05;22.33;;;19.53;;
16177;SDS011;8195;51.220;9.746;2023-10-13T02:51:25;22.63;;;20.33;;
16177;SDS011;8195;51.220;9.746;2023-10-13T02:55:52;22.80;;;20.47;;
16177;SDS011;8195;51.220;9.746;2023-10-13T03:00:13;22.83;;;20.43;;
16177;SDS011;8195;51.220;9.746;2023-10-13T03:04:33;22.33;;;19.97;;
16177;SDS011;8195;51.220;9.746;2023-10-13T03:08:53;22.03;;;19.63;;
16177;SDS011;8195;51.220;9.746;2023-10-13T03:13:14;22.70;;;20.30;;
16177;SDS011;8195;51.220;9.746;2023-10-13T03:17:34;22.17;;;19.90;;
16177;SDS011;8195;51.220;9.746;2023-10-13T03:21:54;21.57;;;19.37;;
16177;SDS011;8195;51.220;9.746;2023-10-13T03:26:15;22.57;;;19.63;;
16177;SDS011;8195;51.220;9.746;2023-10-13T03:30:35;21.83;;;19.57;;
16177;SDS011;8195;51.220;9.746;2023-10-13T03:34:55;21.03;;;18.83;;
16177;SDS011;8195;51.220;9.746;2023-10-13T03:39:16;22.57;;;19.60;;
16177;SDS011;8195;51.220;9.746;2023-10-13T03:43:36;21.33;;;19.17;;
16177;SDS011;8195;51.220;9.746;2023-10-13T03:47:56;22.33;;;20.13;;
16177;SDS011;8195;51.220;9.746;2023-10-13T03:52:16;21.43;;;19.20;;
16177;SDS011;8195;51.220;9.746;2023-10-13T03:56:37;22.23;;;18.70;;
16177;SDS011;8195;51.220;9.746;2023-10-13T04:00:57;20.83;;;18.67;;
16177;SDS011;8195;51.220;9.746;2023-10-13T04:05:17;20.60;;;18.33;;
16177;SDS011;8195;51.220;9.746;2023-10-13T04:09:38;22.27;;;19.23;;
16177;SDS011;8195;51.220;9.746;2023-10-13T04:13:59;21.53;;;18.63;;
16177;SDS011;8195;51.220;9.746;2023-10-13T04:18:19;22.00;;;18.77;;
16177;SDS011;8195;51.220;9.746;2023-10-13T04:22:40;21.33;;;19.10;;
16177;SDS011;8195;51.220;9.746;2023-10-13T04:27:01;20.10;;;18.20;;
16177;SDS011;8195;51.220;9.746;2023-10-13T04:31:21;20.07;;;17.73;;
16177;SDS011;8195;51.220;9.746;2023-10-13T04:35:42;19.20;;;17.40;;
16177;SDS011;8195;51.220;9.746;2023-10-13T04:40:02;18.80;;;17.10;;
16177;SDS011;8195;51.220;9.746;2023-10-13T04:44:23;19.20;;;17.33;;
16177;SDS011;8195;51.220;9.746;2023-10-13T04:48:44;20.10;;;17.90;;
16177;SDS011;8195;51.220;9.746;2023-10-13T04:53:04;19.40;;;17.37;;
16177;SDS011;8195;51.220;9.746;2023-10-13T04:57:24;20.10;;;16.80;;
16177;SDS011;8195;51.220;9.746;2023-10-13T05:01:45;19.53;;;17.60;;
16177;SDS011;8195;51.220;9.746;2023-10-13T05:06:05;19.17;;;17.37;;
16177;SDS011;8195;51.220;9.746;2023-10-13T05:10:26;21.13;;;18.90;;
16177;SDS011;8195;51.220;9.746;2023-10-13T05:14:46;21.80;;;18.03;;
16177;SDS011;8195;51.220;9.746;2023-10-13T05:19:07;19.57;;;17.67;;
16177;SDS011;8195;51.220;9.746;2023-10-13T05:23:27;20.13;;;18.03;;
16177;SDS011;8195;51.220;9.746;2023-10-13T05:27:47;23.90;;;17.63;;
16177;SDS011;8195;51.220;9.746;2023-10-13T05:32:07;20.23;;;18.33;;
16177;SDS011;8195;51.220;9.746;2023-10-13T05:36:28;20.23;;;18.17;;
16177;SDS011;8195;51.220;9.746;2023-10-13T05:40:56;18.97;;;17.00;;
16177;SDS011;8195;51.220;9.746;2023-10-13T05:45:23;20.37;;;18.37;;
16177;SDS011;8195;51.220;9.746;2023-10-13T05:49:44;20.10;;;18.10;;
16177;SDS011;8195;51.220;9.746;2023-10-13T05:54:04;19.60;;;17.53;;
16177;SDS011;8195;51.220;9.746;2023-10-13T05:58:25;22.93;;;19.23;;
16177;SDS011;8195;51.220;9.746;2023-10-13T06:02:45;21.17;;;18.87;;
16177;SDS011;8195;51.220;9.746;2023-10-13T06:07:06;20.83;;;18.83;;
16177;SDS011;8195;51.220;9.746;2023-10-13T06:11:26;21.47;;;18.83;;
16177;SDS011;8195;51.220;9.746;2023-10-13T06:15:46;23.83;;;19.60;;
16177;SDS011;8195;51.220;9.746;2023-10-13T06:20:07;22.90;;;20.13;;
16177;SDS011;8195;51.220;9.746;2023-10-13T06:24:27;22.53;;;20.13;;
16177;SDS011;8195;51.220;9.746;2023-10-13T06:28:48;22.30;;;20.00;;
16177;SDS011;8195;51.220;9.746;2023-10-13T06:33:08;25.90;;;21.53;;
16177;SDS011;8195;51.220;9.746;2023-10-13T06:37:28;24.40;;;21.73;;
16177;SDS011;8195;51.220;9.746;2023-10-13T06:41:48;25.33;;;22.20;;
16177;SDS011;8195;51.220;9.746;2023-10-13T06:46:09;25.10;;;22.53;;
16177;SDS011;8195;51.220;9.746;2023-10-13T06:50:30;24.33;;;20.97;;
16177;SDS011;8195;51.220;9.746;2023-10-13T06:54:50;24.80;;;22.30;;
16177;SDS011;8195;51.220;9.746;2023-10-13T06:59:11;24.00;;;21.23;;
16177;SDS011;8195;51.220;9.746;2023-10-13T07:03:32;23.20;;;20.80;;
16177;SDS011;8195;51.220;9.746;2023-10-13T07:07:52;22.90;;;20.47;;
16177;SDS011;8195;51.220;9.746;2023-10-13T07:12:12;20.90;;;18.83;;
16177;SDS011;8195;51.220;9.746;2023-10-13T07:16:32;23.40;;;18.00;;
16177;SDS011;8195;51.220;9.746;2023-10-13T07:20:53;19.40;;;17.27;;
16177;SDS011;8195;51.220;9.746;2023-10-13T07:25:13;18.90;;;16.07;;
16177;SDS011;8195;51.220;9.746;2023-10-13T07:29:33;17.63;;;14.80;;
16177;SDS011;8195;51.220;9.746;2023-10-13T07:33:54;16.63;;;14.83;;
16177;SDS011;8195;51.220;9.746;2023-10-13T07:38:14;16.73;;;14.17;;
16177;SDS011;8195;51.220;9.746;2023-10-13T07:42:34;15.10;;;13.13;;
16177;SDS011;8195;51.220;9.746;2023-10-13T07:46:55;13.93;;;12.30;;
16177;SDS011;8195;51.220;9.746;2023-10-13T07:51:15;14.80;;;12.23;;
16177;SDS011;8195;51.220;9.746;2023-10-13T07:55:35;15.03;;;11.93;;
16177;SDS011;8195;51.220;9.746;2023-10-13T07:59:56;17.40;;;11.90;;
16177;SDS011;8195;51.220;9.746;2023-10-13T08:04:16;13.30;;;10.67;;
16177;SDS011;8195;51.220;9.746;2023-10-13T08:08:37;12.33;;;10.57;;
16177;SDS011;8195;51.220;9.746;2023-10-13T08:12:58;15.17;;;10.10;;
16177;SDS011;8195;51.220;9.746;2023-10-13T08:17:18;12.17;;;9.40;;
16177;SDS011;8195;51.220;9.746;2023-10-13T08:21:38;11.50;;;9.70;;
16177;SDS011;8195;51.220;9.746;2023-10-13T08:25:58;10.80;;;9.37;;
16177;SDS011;8195;51.220;9.746;2023-10-13T08:30:19;16.53;;;9.80;;
16177;SDS011;8195;51.220;9.746;2023-10-13T08:34:39;12.13;;;9.67;;
16177;SDS011;8195;51.220;9.746;2023-10-13T08:39:00;12.27;;;9.53;;
16177;SDS011;8195;51.220;9.746;2023-10-13T08:43:20;15.20;;;10.50;;
16177;SDS011;8195;51.220;9.746;2023-10-13T08:47:40;15.30;;;9.57;;
16177;SDS011;8195;51.220;9.746;2023-10-13T08:52:01;13.07;;;9.67;;
16177;SDS011;8195;51.220;9.746;2023-10-13T08:56:21;13.83;;;9.13;;
16177;SDS011;8195;51.220;9.746;2023-10-13T09:00:42;13.57;;;9.27;;
16177;SDS011;8195;51.220;9.746;2023-10-13T09:05:06;13.33;;;9.60;;
16177;SDS011;8195;51.220;9.746;2023-10-13T09:09:26;14.17;;;9.07;;
16177;SDS011;8195;51.220;9.746;2023-10-13T09:13:47;13.57;;;9.03;;
16177;SDS011;8195;51.220;9.746;2023-10-13T09:18:07;14.80;;;8.67;;
16177;SDS011;8195;51.220;9.746;2023-10-13T09:22:28;16.97;;;8.93;;
16177;SDS011;8195;51.220;9.746;2023-10-13T09:26:49;13.67;;;9.33;;
16177;SDS011;8195;51.220;9.746;2023-10-13T09:31:09;10.73;;;7.83;;
16177;SDS011;8195;51.220;9.746;2023-10-13T09:35:30;12.13;;;8.27;;
16177;SDS011;8195;51.220;9.746;2023-10-13T09:39:51;14.93;;;8.10;;
16177;SDS011;8195;51.220;9.746;2023-10-13T09:44:11;9.27;;;7.33;;
16177;SDS011;8195;51.220;9.746;2023-10-13T09:52:52;12.07;;;8.30;;
16177;SDS011;8195;51.220;9.746;2023-10-13T09:57:15;11.57;;;7.50;;
16177;SDS011;8195;51.220;9.746;2023-10-13T10:01:39;11.43;;;7.23;;
16177;SDS011;8195;51.220;9.746;2023-10-13T10:06:01;13.03;;;7.97;;
16177;SDS011;8195;51.220;9.746;2023-10-13T10:10:22;8.57;;;6.90;;
16177;SDS011;8195;51.220;9.746;2023-10-13T10:19:31;12.53;;;6.83;;
16177;SDS011;8195;51.220;9.746;2023-10-13T10:23:52;10.37;;;6.23;;
16177;SDS011;8195;51.220;9.746;2023-10-13T10:28:12;13.07;;;6.87;;
16177;SDS011;8195;51.220;9.746;2023-10-13T10:32:33;9.60;;;5.87;;
16177;SDS011;8195;51.220;9.746;2023-10-13T10:36:54;8.87;;;6.37;;
16177;SDS011;8195;51.220;9.746;2023-10-13T10:41:15;12.63;;;6.40;;
16177;SDS011;8195;51.220;9.746;2023-10-13T10:45:36;9.43;;;6.63;;
16177;SDS011;8195;51.220;9.746;2023-10-13T10:49:57;8.37;;;6.27;;
16177;SDS011;8195;51.220;9.746;2023-10-13T10:54:18;8.17;;;6.47;;
16177;SDS011;8195;51.220;9.746;2023-10-13T10:58:39;10.03;;;7.13;;
16177;SDS011;8195;51.220;9.746;2023-10-13T11:02:59;8.27;;;6.70;;
16177;SDS011;8195;51.220;9.746;2023-10-13T11:07:20;7.87;;;6.97;;
16177;SDS011;8195;51.220;9.746;2023-10-13T11:11:44;9.57;;;7.23;;
16177;SDS011;8195;51.220;9.746;2023-10-13T11:16:05;9.57;;;8.53;;
16177;SDS011;8195;51.220;9.746;2023-10-13T11:20:26;11.33;;;8.00;;
16177;SDS011;8195;51.220;9.746;2023-10-13T11:24:48;11.23;;;8.30;;
16177;SDS011;8195;51.220;9.746;2023-10-13T11:29:08;10.07;;;7.97;;
16177;SDS011;8195;51.220;9.746;2023-10-13T11:33:28;11.23;;;8.07;;
16177;SDS011;8195;51.220;9.746;2023-10-13T11:37:49;10.47;;;8.30;;
16177;SDS011;8195;51.220;9.746;2023-10-13T11:42:10;9.47;;;8.30;;
16177;SDS011;8195;51.220;9.746;2023-10-13T11:46:30;8.30;;;7.50;;
16177;SDS011;8195;51.220;9.746;2023-10-13T11:50:50;11.57;;;8.00;;
16177;SDS011;8195;51.220;9.746;2023-10-13T11:55:11;12.13;;;7.73;;
16177;SDS011;8195;51.220;9.746;2023-10-13T11:59:31;12.67;;;7.57;;
16177;SDS011;8195;51.220;9.746;2023-10-13T12:03:51;9.60;;;7.53;;
16177;SDS011;8195;51.220;9.746;2023-10-13T12:08:12;9.80;;;8.30;;
16177;SDS011;8195;51.220;9.746;2023-10-13T12:12:32;9.83;;;8.53;;
16177;SDS011;8195;51.220;9.746;2023-10-13T12:16:52;11.53;;;8.33;;
16177;SDS011;8195;51.220;9.746;2023-10-13T12:21:13;8.40;;;7.60;;
16177;SDS011;8195;51.220;9.746;2023-10-13T12:25:33;8.63;;;7.73;;
16177;SDS011;8195;51.220;9.746;2023-10-13T12:29:54;9.17;;;7.77;;
16177;SDS011;8195;51.220;9.746;2023-10-13T12:34:14;9.77;;;7.87;;
16177;SDS011;8195;51.220;9.746;2023-10-13T12:38:35;12.77;;;9.27;;
16177;SDS011;8195;51.220;9.746;2023-10-13T12:42:56;9.63;;;8.27;;
16177;SDS011;8195;51.220;9.746;2023-10-13T12:47:17;8.90;;;8.00;;
16177;SDS011;8195;51.220;9.746;2023-10-13T12:51:37;9.77;;;8.23;;
16177;SDS011;8195;51.220;9.746;2023-10-13T12:55:57;9.93;;;8.57;;
16177;SDS011;8195;51.220;9.746;2023-10-13T13:00:18;11.10;;;8.17;;
16177;SDS011;8195;51.220;9.746;2023-10-13T13:04:38;10.67;;;8.80;;
16177;SDS011;8195;51.220;9.746;2023-10-13T13:08:59;11.73;;;8.80;;
16177;SDS011;8195;51.220;9.746;2023-10-13T13:13:20;8.93;;;8.10;;
16177;SDS011;8195;51.220;9.746;2023-10-13T13:17:40;9.57;;;8.67;;
16177;SDS011;8195;51.220;9.746;2023-10-13T13:22:01;10.20;;;9.00;;
16177;SDS011;8195;51.220;9.746;2023-10-13T13:26:22;10.80;;;8.13;;
16177;SDS011;8195;51.220;9.746;2023-10-13T13:30:43;9.87;;;8.83;;
16177;SDS011;8195;51.220;9.746;2023-10-13T13:35:04;10.83;;;9.00;;
16177;SDS011;8195;51.220;9.746;2023-10-13T13:39:24;11.27;;;8.90;;
16177;SDS011;8195;51.220;9.746;2023-10-13T13:43:45;9.37;;;8.50;;
16177;SDS011;8195;51.220;9.746;2023-10-13T13:48:06;9.97;;;8.67;;
16177;SDS011;8195;51.220;9.746;2023-10-13T13:52:26;10.23;;;8.47;;
16177;SDS011;8195;51.220;9.746;2023-10-13T13:56:47;12.53;;;8.63;;
16177;SDS011;8195;51.220;9.746;2023-10-13T14:01:07;9.63;;;8.70;;
16177;SDS011;8195;51.220;9.746;2023-10-13T14:05:28;10.53;;;9.10;;
16177;SDS011;8195;51.220;9.746;2023-10-13T14:09:48;11.57;;;8.57;;
16177;SDS011;8195;51.220;9.746;2023-10-13T14:18:30;11.23;;;8.97;;
16177;SDS011;8195;51.220;9.746;2023-10-13T14:22:50;10.73;;;8.40;;
16177;SDS011;8195;51.220;9.746;2023-10-13T14:27:11;11.07;;;8.80;;
16177;SDS011;8195;51.220;9.746;2023-10-13T14:31:31;9.60;;;8.43;;
16177;SDS011;8195;51.220;9.746;2023-10-13T14:35:52;11.07;;;8.53;;
16177;SDS011;8195;51.220;9.746;2023-10-13T14:40:12;9.30;;;8.47;;
16177;SDS011;8195;51.220;9.746;2023-10-13T14:44:33;10.17;;;9.10;;
16177;SDS011;8195;51.220;9.746;2023-10-13T14:48:53;8.70;;;7.83;;
16177;SDS011;8195;51.220;9.746;2023-10-13T14:53:14;9.83;;;8.20;;
16177;SDS011;8195;51.220;9.746;2023-10-13T14:57:34;11.60;;;8.90;;
16177;SDS011;8195;51.220;9.746;2023-10-13T15:01:54;10.47;;;8.43;;
16177;SDS011;8195;51.220;9.746;2023-10-13T15:06:18;9.90;;;8.00;;
16177;SDS011;8195;51.220;9.746;2023-10-13T15:10:39;9.40;;;8.50;;
16177;SDS011;8195;51.220;9.746;2023-10-13T15:14:59;9.13;;;8.23;;
16177;SDS011;8195;51.220;9.746;2023-10-13T15:19:19;10.87;;;7.97;;
16177;SDS011;8195;51.220;9.746;2023-10-13T15:23:39;10.73;;;8.17;;
16177;SDS011;8195;51.220;9.746;2023-10-13T15:28:03;10.87;;;7.60;;
16177;SDS011;8195;51.220;9.746;2023-10-13T15:32:23;8.77;;;7.87;;
16177;SDS011;8195;51.220;9.746;2023-10-13T15:36:44;8.63;;;7.83;;
16177;SDS011;8195;51.220;9.746;2023-10-13T15:41:04;8.50;;;7.70;;
16177;SDS011;8195;51.220;9.746;2023-10-13T15:45:25;10.57;;;7.13;;
16177;SDS011;8195;51.220;9.746;2023-10-13T15:49:45;8.07;;;7.27;;
16177;SDS011;8195;51.220;9.746;2023-10-13T15:54:06;8.23;;;7.17;;
16177;SDS011;8195;51.220;9.746;2023-10-13T15:58:26;9.83;;;8.00;;
16177;SDS011;8195;51.220;9.746;2023-10-13T16:02:46;10.27;;;7.20;;
16177;SDS011;8195;51.220;9.746;2023-10-13T16:07:09;8.17;;;7.37;;
16177;SDS011;8195;51.220;9.746;2023-10-13T16:11:29;9.53;;;7.60;;
16177;SDS011;8195;51.220;9.746;2023-10-13T16:15:50;10.73;;;6.87;;
16177;SDS011;8195;51.220;9.746;2023-10-13T16:20:10;9.43;;;6.90;;
16177;SDS011;8195;51.220;9.746;2023-10-13T16:24:32;9.67;;;6.90;;
16177;SDS011;8195;51.220;9.746;2023-10-13T16:28:52;10.20;;;7.10;;
16177;SDS011;8195;51.220;9.746;2023-10-13T16:33:12;7.23;;;6.53;;
16177;SDS011;8195;51.220;9.746;2023-10-13T16:37:33;8.60;;;6.50;;
16177;SDS011;8195;51.220;9.746;2023-10-13T16:41:53;8.77;;;7.47;;
16177;SDS011;8195;51.220;9.746;2023-10-13T16:46:13;8.63;;;6.73;;
16177;SDS011;8195;51.220;9.746;2023-10-13T16:50:34;7.20;;;6.00;;
16177;SDS011;8195;51.220;9.746;2023-10-13T16:54:54;12.13;;;6.90;;
16177;SDS011;8195;51.220;9.746;2023-10-13T16:59:14;9.60;;;7.13;;
16177;SDS011;8195;51.220;9.746;2023-10-13T17:03:38;9.87;;;7.07;;
16177;SDS011;8195;51.220;9.746;2023-10-13T17:07:59;9.27;;;6.93;;
16177;SDS011;8195;51.220;9.746;2023-10-13T17:12:19;8.67;;;6.73;;
16177;SDS011;8195;51.220;9.746;2023-10-13T17:16:40;9.10;;;6.87;;
16177;SDS011;8195;51.220;9.746;2023-10-13T17:21:00;12.17;;;7.70;;
16177;SDS011;8195;51.220;9.746;2023-10-13T17:25:21;7.83;;;6.33;;
16177;SDS011;8195;51.220;9.746;2023-10-13T17:29:42;11.23;;;7.00;;
16177;SDS011;8195;51.220;9.746;2023-10-13T17:34:04;8.03;;;7.03;;
16177;SDS011;8195;51.220;9.746;2023-10-13T17:38:24;9.37;;;6.67;;
16177;SDS011;8195;51.220;9.746;2023-10-13T17:42:45;9.13;;;7.00;;
16177;SDS011;8195;51.220;9.746;2023-10-13T17:47:05;7.97;;;6.70;;
16177;SDS011;8195;51.220;9.746;2023-10-13T17:51:26;7.43;;;6.77;;
16177;SDS011;8195;51.220;9.746;2023-10-13T17:55:46;7.60;;;6.83;;
16177;SDS011;8195;51.220;9.746;2023-10-13T18:00:06;8.60;;;6.40;;
16177;SDS011;8195;51.220;9.746;2023-10-13T18:04:27;7.80;;;6.47;;
16177;SDS011;8195;51.220;9.746;2023-10-13T18:08:48;8.93;;;6.50;;
16177;SDS011;8195;51.220;9.746;2023-10-13T18:13:09;9.33;;;6.83;;
16177;SDS011;8195;51.220;9.746;2023-10-13T18:17:29;8.90;;;6.73;;
16177;SDS011;8195;51.220;9.746;2023-10-13T18:21:50;7.27;;;6.33;;
16177;SDS011;8195;51.220;9.746;2023-10-13T18:26:10;7.13;;;6.23;;
16177;SDS011;8195;51.220;9.746;2023-10-13T18:30:30;7.37;;;6.67;;
16177;SDS011;8195;51.220;9.746;2023-10-13T18:34:51;9.47;;;6.10;;
16177;SDS011;8195;51.220;9.746;2023-10-13T18:39:11;7.60;;;6.50;;
16177;SDS011;8195;51.220;9.746;2023-10-13T18:43:31;8.83;;;6.70;;
16177;SDS011;8195;51.220;9.746;2023-10-13T18:47:51;6.90;;;6.27;;
16177;SDS011;8195;51.220;9.746;2023-10-13T18:52:12;8.17;;;6.43;;
16177;SDS011;8195;51.220;9.746;2023-10-13T18:56:32;7.47;;;6.67;;
16177;SDS011;8195;51.220;9.746;2023-10-13T19:00:52;7.33;;;6.63;;
16177;SDS011;8195;51.220;9.746;2023-10-13T19:05:13;9.20;;;6.67;;
16177;SDS011;8195;51.220;9.746;2023-10-13T19:09:33;7.33;;;6.53;;
16177;SDS011;8195;51.220;9.746;2023-10-13T19:13:53;7.37;;;6.47;;
16177;SDS011;8195;51.220;9.746;2023-10-13T19:18:14;7.40;;;6.57;;
16177;SDS011;8195;51.220;9.746;2023-10-13T19:22:34;8.30;;;7.47;;
16177;SDS011;8195;51.220;9.746;2023-10-13T19:26:54;11.20;;;7.40;;
16177;SDS011;8195;51.220;9.746;2023-10-13T19:31:14;8.00;;;7.20;;
16177;SDS011;8195;51.220;9.746;2023-10-13T19:35:39;9.67;;;6.90;;
16177;SDS011;8195;51.220;9.746;2023-10-13T19:39:59;7.60;;;6.77;;
16177;SDS011;8195;51.220;9.746;2023-10-13T19:44:19;9.27;;;6.63;;
16177;SDS011;8195;51.220;9.746;2023-10-13T19:48:40;7.93;;;6.60;;
16177;SDS011;8195;51.220;9.746;2023-10-13T19:53:01;8.10;;;6.00;;
16177;SDS011;8195;51.220;9.746;2023-10-13T19:57:21;7.77;;;6.73;;
16177;SDS011;8195;51.220;9.746;2023-10-13T20:01:42;7.53;;;5.93;;
16177;SDS011;8195;51.220;9.746;2023-10-13T20:06:02;7.20;;;5.80;;
16177;SDS011;8195;51.220;9.746;2023-10-13T20:10:22;7.80;;;5.53;;
16177;SDS011;8195;51.220;9.746;2023-10-13T20:14:43;8.67;;;4.97;;
16177;SDS011;8195;51.220;9.746;2023-10-13T20:19:03;6.53;;;5.03;;
16177;SDS011;8195;51.220;9.746;2023-10-13T20:23:23;6.97;;;5.20;;
16177;SDS011;8195;51.220;9.746;2023-10-13T20:27:44;7.53;;;4.67;;
16177;SDS011;8195;51.220;9.746;2023-10-13T20:32:04;6.00;;;4.60;;
16177;SDS011;8195;51.220;9.746;2023-10-13T20:36:24;8.17;;;5.13;;
16177;SDS011;8195;51.220;9.746;2023-10-13T20:40:45;6.77;;;4.70;;
16177;SDS011;8195;51.220;9.746;2023-10-13T20:45:05;7.70;;;5.03;;
16177;SDS011;8195;51.220;9.746;2023-10-13T20:49:26;7.30;;;4.97;;
16177;SDS011;8195;51.220;9.746;2023-10-13T20:53:46;9.60;;;4.67;;
16177;SDS011;8195;51.220;9.746;2023-10-13T20:58:07;6.23;;;4.50;;
16177;SDS011;8195;51.220;9.746;2023-10-13T21:02:27;8.60;;;4.73;;
16177;SDS011;8195;51.220;9.746;2023-10-13T21:06:47;6.17;;;4.37;;
16177;SDS011;8195;51.220;9.746;2023-10-13T21:11:07;8.80;;;5.33;;
16177;SDS011;8195;51.220;9.746;2023-10-13T21:15:28;6.07;;;4.93;;
16177;SDS011;8195;51.220;9.746;2023-10-13T21:19:48;6.37;;;5.03;;
16177;SDS011;8195;51.220;9.746;2023-10-13T21:24:08;8.27;;;5.33;;
16177;SDS011;8195;51.220;9.746;2023-10-13T21:28:29;9.20;;;5.83;;
16177;SDS011;8195;51.220;9.746;2023-10-13T21:32:50;6.30;;;5.57;;
16177;SDS011;8195;51.220;9.746;2023-10-13T21:37:10;8.03;;;5.73;;
16177;SDS011;8195;51.220;9.746;2023-10-13T21:41:31;6.07;;;5.50;;
16177;SDS011;8195;51.220;9.746;2023-10-13T21:45:51;7.40;;;5.70;;
16177;SDS011;8195;51.220;9.746;2023-10-13T21:50:12;6.27;;;5.57;;
16177;SDS011;8195;51.220;9.746;2023-10-13T21:54:32;6.93;;;6.20;;
16177;SDS011;8195;51.220;9.746;2023-10-13T21:58:53;7.37;;;5.87;;
16177;SDS011;8195;51.220;9.746;2023-10-13T22:03:13;7.10;;;6.37;;
16177;SDS011;8195;51.220;9.746;2023-10-13T22:07:33;10.63;;;6.70;;
16177;SDS011;8195;51.220;9.746;2023-10-13T22:11:54;7.30;;;6.53;;
16177;SDS011;8195;51.220;9.746;2023-10-13T22:16:15;7.33;;;6.13;;
16177;SDS011;8195;51.220;9.746;2023-10-13T22:20:36;13.30;;;6.37;;
16177;SDS011;8195;51.220;9.746;2023-10-13T22:24:56;8.70;;;6.97;;
16177;SDS011;8195;51.220;9.746;2023-10-13T22:29:16;12.43;;;6.83;;
16177;SDS011;8195;51.220;9.746;2023-10-13T22:33:37;9.17;;;6.73;;
16177;SDS011;8195;51.220;9.746;2023-10-13T22:37:58;8.13;;;7.30;;
16177;SDS011;8195;51.220;9.746;2023-10-13T22:42:18;10.40;;;8.07;;
16177;SDS011;8195;51.220;9.746;2023-10-13T22:46:38;12.77;;;7.63;;
16177;SDS011;8195;51.220;9.746;2023-10-13T22:51:02;9.77;;;7.57;;
16177;SDS011;8195;51.220;9.746;2023-10-13T22:55:27;13.67;;;8.10;;
16177;SDS011;8195;51.220;9.746;2023-10-13T22:59:47;12.20;;;7.47;;
16177;SDS011;8195;51.220;9.746;2023-10-13T23:04:08;11.43;;;8.47;;
16177;SDS011;8195;51.220;9.746;2023-10-13T23:08:32;12.57;;;8.50;;
16177;SDS011;8195;51.220;9.746;2023-10-13T23:12:53;9.43;;;8.53;;
16177;SDS011;8195;51.220;9.746;2023-10-13T23:17:13;9.30;;;8.10;;
16177;SDS011;8195;51.220;9.746;2023-10-13T23:21:33;9.40;;;7.83;;
16177;SDS011;8195;51.220;9.746;2023-10-13T23:25:54;12.27;;;8.97;;
16177;SDS011;8195;51.220;9.746;2023-10-13T23:30:14;12.40;;;9.40;;
16177;SDS011;8195;51.220;9.746;2023-10-13T23:34:34;9.23;;;8.33;;
16177;SDS011;8195;51.220;9.746;2023-10-13T23:38:55;10.43;;;8.40;;
16177;SDS011;8195;51.220;9.746;2023-10-13T23:43:15;12.23;;;9.00;;
16177;SDS011;8195;51.220;9.746;2023-10-13T23:47:36;11.40;;;9.10;;
16177;SDS011;8195;51.220;9.746;2023-10-13T23:51:56;9.33;;;8.43;;
16177;SDS011;8195;51.220;9.746;2023-10-13T23:56:17;12.57;;;9.50;;
